createdAt,value
2023-05-05T00:00:26.013Z,99163.22
2023-05-05T00:02:52.949Z,99163.34
2023-05-05T00:05:19.744Z,99155.78
2023-05-05T00:07:46.424Z,99151.91
2023-05-05T00:10:13.308Z,99147.44
2023-05-05T00:12:40.145Z,99150.66
2023-05-05T00:15:07.746Z,99150.09
2023-05-05T00:17:34.580Z,99144.16
2023-05-05T00:20:01.825Z,99149.94
2023-05-05T00:22:29.258Z,99148.31
2023-05-05T00:24:56.368Z,99145.53
2023-05-05T00:27:23.334Z,99135.44
2023-05-05T00:29:50.161Z,99142.91
2023-05-05T00:32:17.105Z,99130.88
2023-05-05T00:34:44.318Z,99130.63
2023-05-05T00:37:11.515Z,99127.00
2023-05-05T00:39:38.318Z,99124.22
2023-05-05T00:42:05.187Z,99123.41
2023-05-05T00:44:37.475Z,99128.38
2023-05-05T00:47:04.573Z,99125.31
2023-05-05T00:49:31.584Z,99128.06
2023-05-05T00:51:58.397Z,99121.69
2023-05-05T00:54:25.236Z,99112.78
2023-05-05T00:56:52.305Z,99110.34
2023-05-05T00:59:19.304Z,99110.03
2023-05-05T01:01:46.584Z,99109.47
2023-05-05T01:04:13.311Z,99109.47
2023-05-05T01:07:01.343Z,99110.56
2023-05-05T01:09:53.575Z,99115.00
2023-05-05T01:12:37.797Z,99114.41
2023-05-05T01:15:44.115Z,99106.38
2023-05-05T01:18:20.155Z,99103.34
2023-05-05T01:20:55.743Z,99112.72
2023-05-05T01:23:45.692Z,99109.38
2023-05-05T01:26:48.489Z,99104.81
2023-05-05T01:29:28.079Z,99107.06
2023-05-05T01:32:01.932Z,99102.75
2023-05-05T01:34:33.400Z,99108.47
2023-05-05T01:37:11.960Z,99105.56
2023-05-05T01:39:39.047Z,99107.38
2023-05-05T01:42:09.528Z,99109.03
2023-05-05T01:44:37.363Z,99106.16
2023-05-05T01:47:05.648Z,99096.88
2023-05-05T01:49:33.232Z,99112.50
2023-05-05T01:52:01.050Z,99107.81
2023-05-05T01:54:28.578Z,99099.72
2023-05-05T01:56:56.731Z,99094.34
2023-05-05T01:59:24.708Z,99095.59
2023-05-05T02:01:52.399Z,99094.44
2023-05-05T02:04:22.971Z,99100.97
2023-05-05T02:06:53.301Z,99100.75
2023-05-05T02:09:21.064Z,99102.34
2023-05-05T02:11:47.803Z,99094.13
2023-05-05T02:14:15.545Z,99091.38
2023-05-05T02:16:42.733Z,99099.88
2023-05-05T02:19:09.730Z,99091.06
2023-05-05T02:21:36.664Z,99081.53
2023-05-05T02:24:04.335Z,99079.75
2023-05-05T02:26:33.965Z,99082.69
2023-05-05T02:29:36.915Z,99085.09
2023-05-05T02:32:10.211Z,99076.34
2023-05-05T02:34:38.805Z,99088.81
2023-05-05T02:37:11.487Z,99083.56
2023-05-05T02:40:05.105Z,99084.13
2023-05-05T02:42:36.123Z,99080.75
2023-05-05T02:45:07.913Z,99077.16
2023-05-05T02:47:38.402Z,99075.63
2023-05-05T02:50:06.241Z,99079.50
2023-05-05T02:52:33.909Z,99074.50
2023-05-05T02:55:01.149Z,99069.72
2023-05-05T02:57:57.883Z,99066.97
2023-05-05T03:00:38.841Z,99076.78
2023-05-05T03:03:27.453Z,99079.28
2023-05-05T03:06:04.186Z,99085.09
2023-05-05T03:08:53.200Z,99081.78
2023-05-05T03:11:28.181Z,99067.94
2023-05-05T03:14:19.410Z,99070.03
2023-05-05T03:16:47.193Z,99076.31
2023-05-05T03:19:17.053Z,99066.09
2023-05-05T03:21:43.958Z,99063.25
2023-05-05T03:24:15.728Z,99072.59
2023-05-05T03:26:43.462Z,99079.28
2023-05-05T03:29:10.314Z,99066.66
2023-05-05T03:31:37.194Z,99070.22
2023-05-05T03:34:03.960Z,99070.19
2023-05-05T03:36:31.158Z,99066.59
2023-05-05T03:38:58.454Z,99063.88
2023-05-05T03:41:25.424Z,99066.84
2023-05-05T03:43:52.224Z,99056.38
2023-05-05T03:46:19.300Z,99053.69
2023-05-05T03:48:46.458Z,99058.91
2023-05-05T03:51:13.644Z,99069.09
2023-05-05T03:53:40.600Z,99064.81
2023-05-05T03:56:07.521Z,99063.84
2023-05-05T03:58:34.212Z,99075.16
2023-05-05T04:01:01.022Z,99070.75
2023-05-05T04:03:27.879Z,99067.72
2023-05-05T04:05:54.688Z,99080.06
2023-05-05T04:08:21.420Z,99078.09
2023-05-05T04:10:48.114Z,99076.50
2023-05-05T04:13:14.879Z,99075.47
2023-05-05T04:15:46.423Z,99073.56
2023-05-05T04:18:13.247Z,99071.19
2023-05-05T04:20:40.067Z,99067.56
2023-05-05T04:23:06.781Z,99070.38
2023-05-05T04:25:33.582Z,99067.63
2023-05-05T04:28:00.416Z,99068.41
2023-05-05T04:30:27.180Z,99062.06
2023-05-05T04:32:54.009Z,99067.91
2023-05-05T04:35:21.006Z,99072.53
2023-05-05T04:37:47.914Z,99068.25
2023-05-05T04:40:14.726Z,99075.81
2023-05-05T04:42:41.437Z,99080.53
2023-05-05T04:45:09.338Z,99087.34
2023-05-05T04:47:39.992Z,99089.16
2023-05-05T04:50:08.510Z,99089.19
2023-05-05T04:52:35.629Z,99091.75
2023-05-05T04:55:02.621Z,99088.94
2023-05-05T04:57:30.045Z,99094.91
2023-05-05T04:59:56.750Z,99094.63
2023-05-05T05:02:23.899Z,99094.97
2023-05-05T05:04:50.765Z,99091.41
2023-05-05T05:07:17.506Z,99092.56
2023-05-05T05:09:44.245Z,99089.94
2023-05-05T05:12:11.069Z,99085.50
2023-05-05T05:14:38.451Z,99094.44
2023-05-05T05:17:06.257Z,99100.00
2023-05-05T05:19:32.995Z,99096.03
2023-05-05T05:21:59.724Z,99115.75
2023-05-05T05:24:26.553Z,99117.47
2023-05-05T05:26:53.286Z,99113.75
2023-05-05T05:29:21.226Z,99114.91
2023-05-05T05:31:47.959Z,99111.78
2023-05-05T05:34:14.741Z,99107.69
2023-05-05T05:36:41.445Z,99117.06
2023-05-05T05:39:08.635Z,99112.38
2023-05-05T05:41:35.491Z,99113.63
2023-05-05T05:44:02.193Z,99108.91
2023-05-05T05:46:28.942Z,99106.81
2023-05-05T05:48:55.723Z,99116.09
2023-05-05T05:51:22.632Z,99106.66
2023-05-05T05:53:49.652Z,99104.84
2023-05-05T05:56:16.428Z,99114.50
2023-05-05T05:58:43.302Z,99112.00
2023-05-05T06:01:10.079Z,99113.88
2023-05-05T06:03:36.840Z,99109.47
2023-05-05T06:06:03.745Z,99110.25
2023-05-05T06:08:32.271Z,99114.91
2023-05-05T06:11:00.782Z,99105.19
2023-05-05T06:13:27.519Z,99119.41
2023-05-05T06:15:54.283Z,99120.31
2023-05-05T06:18:21.082Z,99116.41
2023-05-05T06:20:51.343Z,99119.63
2023-05-05T06:23:18.612Z,99118.25
2023-05-05T06:25:45.492Z,99117.41
2023-05-05T06:28:12.185Z,99119.97
2023-05-05T06:30:38.924Z,99104.63
2023-05-05T06:33:05.709Z,99105.06
2023-05-05T06:35:32.476Z,99114.28
2023-05-05T06:37:59.191Z,99112.72
2023-05-05T06:40:25.924Z,99113.16
2023-05-05T06:42:52.622Z,99114.44
2023-05-05T06:45:19.333Z,99120.31
2023-05-05T06:47:46.179Z,99114.31
2023-05-05T06:50:12.994Z,99115.88
2023-05-05T06:52:39.679Z,99112.63
2023-05-05T06:55:06.971Z,99105.31
2023-05-05T06:57:33.697Z,99102.50
2023-05-05T07:00:00.638Z,99108.63
2023-05-05T07:02:27.464Z,99108.31
2023-05-05T07:04:55.727Z,99101.53
2023-05-05T07:07:22.598Z,99100.53
2023-05-05T07:09:49.442Z,99096.59
2023-05-05T07:12:16.134Z,99093.59
2023-05-05T07:14:42.927Z,99086.81
2023-05-05T07:17:09.709Z,99079.34
2023-05-05T07:19:36.407Z,99085.13
2023-05-05T07:22:03.386Z,99094.53
2023-05-05T07:24:30.158Z,99096.13
2023-05-05T07:26:57.709Z,99092.53
2023-05-05T07:29:24.506Z,99096.75
2023-05-05T07:31:51.398Z,99091.59
2023-05-05T07:34:18.249Z,99083.44
2023-05-05T07:36:45.179Z,99087.16
2023-05-05T07:39:15.227Z,99088.28
2023-05-05T07:41:42.785Z,99088.94
2023-05-05T07:44:09.542Z,99097.66
2023-05-05T07:46:36.713Z,99094.63
2023-05-05T07:49:04.725Z,99091.56
2023-05-05T07:51:34.415Z,99095.44
2023-05-05T07:54:02.137Z,99083.81
2023-05-05T07:56:29.064Z,99092.41
2023-05-05T07:58:56.650Z,99095.56
2023-05-05T08:01:23.698Z,99085.88
2023-05-05T08:03:50.884Z,99084.38
2023-05-05T08:06:22.300Z,99086.13
2023-05-05T08:08:49.641Z,99092.31
2023-05-05T08:11:16.893Z,99102.59
2023-05-05T08:13:43.640Z,99092.69
2023-05-05T08:16:10.692Z,99095.94
2023-05-05T08:18:38.686Z,99096.81
2023-05-05T08:51:41.986Z,99085.84
2023-05-05T08:54:12.647Z,99086.09
2023-05-05T08:56:42.117Z,99078.75
2023-05-05T08:59:10.360Z,99085.63
2023-05-05T09:01:37.406Z,99091.81
2023-05-05T09:04:05.086Z,99087.59
2023-05-05T09:06:34.137Z,99089.19
2023-05-05T09:09:01.647Z,99090.13
2023-05-05T09:11:28.561Z,99085.84
2023-05-05T09:13:56.050Z,99086.53
2023-05-05T09:16:23.261Z,99087.31
2023-05-05T09:18:50.164Z,99083.44
2023-05-05T09:21:22.249Z,99088.25
2023-05-05T09:24:09.503Z,99081.28
2023-05-05T09:26:38.811Z,99084.56
2023-05-05T09:29:06.449Z,99087.03
2023-05-05T09:31:34.877Z,99082.94
2023-05-05T09:34:01.942Z,99084.41
2023-05-05T09:36:48.242Z,99080.75
2023-05-05T09:39:18.220Z,99078.50
2023-05-05T09:41:45.432Z,99074.16
2023-05-05T09:44:12.881Z,99076.03
2023-05-05T09:46:51.251Z,99070.72
2023-05-05T09:49:26.973Z,99074.00
2023-05-05T09:51:54.753Z,99074.44
2023-05-05T09:54:25.072Z,99079.19
2023-05-05T09:56:52.630Z,99074.84
2023-05-05T09:59:22.184Z,99070.19
2023-05-05T10:01:50.272Z,99068.72
2023-05-05T10:04:28.665Z,99068.72
2023-05-05T10:06:59.416Z,99075.06
2023-05-05T10:09:46.173Z,99072.59
2023-05-05T10:12:12.965Z,99070.09
2023-05-05T10:14:40.054Z,99059.50
2023-05-05T10:17:07.832Z,99061.66
2023-05-05T10:19:35.402Z,99066.81
2023-05-05T10:22:04.062Z,99060.44
2023-05-05T10:24:43.549Z,99053.00
2023-05-05T10:27:16.934Z,99050.44
2023-05-05T10:29:58.633Z,99044.59
2023-05-05T10:35:17.761Z,99049.69
2023-05-05T10:37:44.956Z,99043.06
2023-05-05T10:40:12.712Z,99036.47
2023-05-05T10:42:40.400Z,99035.94
2023-05-05T10:45:07.889Z,99036.03
2023-05-05T10:47:36.122Z,99034.69
2023-05-05T10:50:18.596Z,99029.75
2023-05-05T10:52:52.857Z,99024.44
2023-05-05T10:55:25.088Z,99023.91
2023-05-05T10:57:55.018Z,99023.75
2023-05-05T11:01:00.715Z,99024.28
2023-05-05T11:03:27.676Z,99016.56
2023-05-05T11:06:09.871Z,99020.16
2023-05-05T11:08:45.335Z,99015.97
2023-05-05T11:11:13.276Z,99016.91
2023-05-05T11:13:41.024Z,99014.59
2023-05-05T11:16:41.880Z,99020.34
2023-05-05T11:19:45.029Z,99008.66
2023-05-05T11:22:11.969Z,99000.47
2023-05-05T11:24:40.074Z,99005.75
2023-05-05T11:27:06.899Z,99002.31
2023-05-05T11:30:09.359Z,99000.31
2023-05-05T11:32:36.435Z,98997.63
2023-05-05T11:35:04.156Z,98991.91
2023-05-05T11:37:31.177Z,98985.56
2023-05-05T11:40:24.295Z,98980.22
2023-05-05T11:43:04.812Z,98972.09
2023-05-05T11:45:31.526Z,98982.44
2023-05-05T11:48:29.259Z,98976.69
2023-05-05T11:50:56.133Z,98971.41
2023-05-05T11:53:23.338Z,98965.53
2023-05-05T11:55:50.140Z,98958.75
2023-05-05T11:58:20.674Z,98961.50
2023-05-05T12:00:48.260Z,98964.53
2023-05-05T12:03:15.137Z,98961.28
2023-05-05T12:05:42.008Z,98957.09
2023-05-05T12:08:09.234Z,98951.00
2023-05-05T12:10:36.091Z,98948.63
2023-05-05T12:13:02.891Z,98955.88
2023-05-05T12:15:31.343Z,98957.13
2023-05-05T12:18:00.007Z,98967.25
2023-05-05T12:20:33.353Z,98953.94
2023-05-05T12:23:01.932Z,98951.97
2023-05-05T12:25:36.188Z,98949.81
2023-05-05T12:28:02.945Z,98950.41
2023-05-05T12:30:29.738Z,98954.13
2023-05-05T12:33:06.910Z,98952.16
2023-05-05T12:35:34.106Z,98945.53
2023-05-05T12:38:00.824Z,98953.78
2023-05-05T12:40:49.990Z,98951.75
2023-05-05T12:43:33.563Z,98946.09
2023-05-05T12:46:12.329Z,98942.53
2023-05-05T12:48:46.364Z,98927.56
2023-05-05T12:51:23.552Z,98939.53
2023-05-05T12:54:02.861Z,98926.53
2023-05-05T12:56:41.043Z,98925.78
2023-05-05T12:59:09.286Z,98926.75
2023-05-05T13:01:38.306Z,98925.56
2023-05-05T13:04:09.904Z,98917.50
2023-05-05T13:06:38.045Z,98925.03
2023-05-05T13:09:05.748Z,98910.44
2023-05-05T13:11:38.661Z,98910.34
2023-05-05T13:14:07.211Z,98908.31
2023-05-05T13:16:34.367Z,98892.00
2023-05-05T13:19:01.086Z,98892.88
2023-05-05T13:21:28.354Z,98895.41
2023-05-05T13:24:01.559Z,98897.72
2023-05-05T13:26:39.027Z,98882.88
2023-05-05T13:29:05.718Z,98880.44
2023-05-05T13:31:32.671Z,98881.91
2023-05-05T13:33:59.403Z,98873.94
2023-05-05T13:36:27.307Z,98869.84
2023-05-05T13:38:54.289Z,98871.25
2023-05-05T13:41:20.973Z,98862.28
2023-05-05T13:43:47.702Z,98858.09
2023-05-05T13:46:20.119Z,98855.88
2023-05-05T13:48:47.570Z,98854.66
2023-05-05T13:51:14.439Z,98853.88
2023-05-05T13:53:44.122Z,98856.13
2023-05-05T13:56:11.078Z,98850.66
2023-05-05T13:58:38.109Z,98853.19
2023-05-05T14:01:04.983Z,98863.16
2023-05-05T14:03:32.031Z,98854.63
2023-05-05T14:05:59.016Z,98864.66
2023-05-05T14:08:25.809Z,98859.84
2023-05-05T14:10:52.497Z,98865.66
2023-05-05T14:13:19.314Z,98853.03
2023-05-05T14:15:46.933Z,98848.47
2023-05-05T14:18:13.667Z,98844.78
2023-05-05T14:20:40.431Z,98838.38
2023-05-05T14:23:07.209Z,98829.97
2023-05-05T14:25:33.967Z,98835.31
2023-05-05T14:28:01.153Z,98833.75
2023-05-05T14:30:28.966Z,98834.69
2023-05-05T14:32:59.567Z,98837.38
2023-05-05T14:35:27.556Z,98842.00
2023-05-05T14:37:54.299Z,98859.03
2023-05-05T14:40:21.081Z,98867.88
2023-05-05T14:42:47.833Z,98881.09
2023-05-05T14:45:14.670Z,98870.00
2023-05-05T14:47:41.505Z,98881.09
2023-05-05T14:50:10.073Z,98892.78
2023-05-05T14:52:40.443Z,98890.50
2023-05-05T14:55:08.064Z,98888.84
2023-05-05T14:57:35.126Z,98885.94
2023-05-05T15:00:01.924Z,98881.00
2023-05-05T15:02:28.723Z,98881.00
2023-05-05T15:04:55.485Z,98880.19
2023-05-05T15:07:22.998Z,98885.09
2023-05-05T15:09:49.829Z,98885.56
2023-05-05T15:12:16.704Z,98889.66
2023-05-05T15:14:43.681Z,98886.78
2023-05-05T15:17:10.478Z,98889.41
2023-05-05T15:19:37.201Z,98890.31
2023-05-05T15:22:04.135Z,98888.47
2023-05-05T15:24:30.995Z,98891.84
2023-05-05T15:26:57.896Z,98883.31
2023-05-05T15:29:24.612Z,98889.31
2023-05-05T15:31:51.381Z,98883.94
2023-05-05T15:34:18.196Z,98885.28
2023-05-05T15:36:44.958Z,98894.00
2023-05-05T15:39:11.670Z,98894.50
2023-05-05T15:41:38.433Z,98897.56
2023-05-05T15:44:05.426Z,98893.47
2023-05-05T15:46:33.693Z,98888.16
2023-05-05T15:49:00.641Z,98888.44
2023-05-05T15:51:27.723Z,98888.81
2023-05-05T15:53:54.795Z,98894.00
2023-05-05T15:56:21.695Z,98891.00
2023-05-05T15:58:48.471Z,98889.13
2023-05-05T16:01:15.170Z,98894.00
2023-05-05T16:03:42.028Z,98905.06
2023-05-05T16:06:10.388Z,98899.44
2023-05-05T16:08:39.954Z,98898.59
2023-05-05T16:11:07.006Z,98901.72
2023-05-05T16:13:34.190Z,98896.63
2023-05-05T16:16:00.912Z,98899.69
2023-05-05T16:18:27.633Z,98891.41
2023-05-05T16:20:54.476Z,98897.56
2023-05-05T16:23:21.275Z,98892.00
2023-05-05T16:25:47.946Z,98892.53
2023-05-05T16:28:14.640Z,98888.13
2023-05-05T16:30:43.135Z,98891.31
2023-05-05T16:33:10.115Z,98875.66
2023-05-05T16:35:36.925Z,98881.25
2023-05-05T16:38:03.830Z,98867.97
2023-05-05T16:40:30.579Z,98877.34
2023-05-05T16:42:57.804Z,98872.66
2023-05-05T16:45:24.707Z,98871.75
2023-05-05T16:47:51.522Z,98874.16
2023-05-05T16:50:18.333Z,98866.75
2023-05-05T16:52:45.275Z,98860.88
2023-05-05T16:55:12.319Z,98867.31
2023-05-05T16:57:39.069Z,98865.28
2023-05-05T17:00:06.868Z,98870.00
2023-05-05T17:02:33.659Z,98881.91
2023-05-05T17:05:00.533Z,98884.16
2023-05-05T17:07:27.504Z,98890.13
2023-05-05T17:09:54.242Z,98901.25
2023-05-05T17:12:20.937Z,98906.94
2023-05-05T17:14:47.749Z,98908.22
2023-05-05T17:17:14.547Z,98917.56
2023-05-05T17:19:42.884Z,98931.97
2023-05-05T17:22:09.663Z,98931.97
2023-05-05T17:24:36.696Z,98942.75
2023-05-05T17:27:03.511Z,98952.72
2023-05-05T17:29:30.217Z,98950.47
2023-05-05T17:31:57.037Z,98946.41
2023-05-05T17:34:23.785Z,98936.38
2023-05-05T17:36:50.529Z,98940.00
2023-05-05T17:39:17.310Z,98938.72
2023-05-05T17:41:44.097Z,98953.00
2023-05-05T17:44:10.942Z,98950.44
2023-05-05T17:46:38.564Z,98942.56
2023-05-05T17:49:05.366Z,98941.13
2023-05-05T17:51:32.545Z,98931.31
2023-05-05T17:53:59.270Z,98938.25
2023-05-05T17:56:26.168Z,98932.13
2023-05-05T17:58:53.374Z,98934.50
2023-05-05T18:01:24.366Z,98939.44
2023-05-05T18:03:51.469Z,98925.19
2023-05-05T18:06:18.486Z,98927.81
2023-05-05T18:08:45.496Z,98944.13
2023-05-05T18:11:12.302Z,98946.22
2023-05-05T18:13:39.735Z,98955.53
2023-05-05T18:16:06.989Z,98952.88
2023-05-05T18:18:33.935Z,98957.28
2023-05-05T18:21:00.791Z,98956.03
2023-05-05T18:23:27.560Z,98952.47
2023-05-05T18:25:54.262Z,98947.41
2023-05-05T18:28:21.021Z,98951.63
2023-05-05T18:30:49.630Z,98953.25
2023-05-05T18:33:16.417Z,98954.72
2023-05-05T18:35:43.212Z,98955.47
2023-05-05T18:38:09.955Z,98957.78
2023-05-05T18:40:36.679Z,98962.41
2023-05-05T18:43:03.486Z,98978.88
2023-05-05T18:45:30.678Z,98972.00
2023-05-05T18:47:58.031Z,98987.34
2023-05-05T18:50:24.911Z,98986.00
2023-05-05T18:52:51.659Z,98996.53
2023-05-05T18:55:19.166Z,98996.78
2023-05-05T18:57:45.901Z,99007.75
2023-05-05T19:00:13.052Z,98989.81
2023-05-05T19:02:39.932Z,98991.13
2023-05-05T19:05:08.031Z,98992.94
2023-05-05T19:07:35.969Z,99010.84
2023-05-05T19:10:04.706Z,99009.97
2023-05-05T19:12:31.534Z,99018.25
2023-05-05T19:14:58.487Z,99013.41
2023-05-05T19:17:25.417Z,99009.84
2023-05-05T19:19:52.263Z,99007.31
2023-05-05T19:22:20.815Z,99026.50
2023-05-05T19:24:47.502Z,99022.34
2023-05-05T19:27:16.554Z,99018.84
2023-05-05T19:29:43.836Z,99019.31
2023-05-05T19:32:10.808Z,99015.72
2023-05-05T19:34:37.595Z,99020.19
2023-05-05T19:37:04.357Z,99016.53
2023-05-05T19:39:31.532Z,99015.56
2023-05-05T19:41:58.271Z,99023.94
2023-05-05T19:44:25.051Z,99017.63
2023-05-05T19:46:53.160Z,99033.31
2023-05-05T19:49:19.962Z,99033.03
2023-05-05T19:51:49.951Z,99023.00
2023-05-05T19:54:16.813Z,99022.22
2023-05-05T19:56:43.544Z,99026.16
2023-05-05T19:59:11.120Z,99021.75
2023-05-05T20:01:38.023Z,99021.84
2023-05-05T20:04:04.974Z,99024.47
2023-05-05T20:06:32.288Z,99028.63
2023-05-05T20:08:59.101Z,99023.16
2023-05-05T20:11:26.248Z,99022.81
2023-05-05T20:13:53.496Z,99015.97
2023-05-05T20:16:21.745Z,99013.53
2023-05-05T20:18:48.763Z,99007.56
2023-05-05T20:21:16.989Z,98992.34
2023-05-05T20:23:45.475Z,98995.66
2023-05-05T20:26:12.708Z,98995.84
2023-05-05T20:28:41.829Z,98995.34
2023-05-05T20:31:11.063Z,98990.16
2023-05-05T20:33:37.894Z,98991.25
2023-05-05T20:36:05.117Z,98991.75
2023-05-05T20:38:32.026Z,98990.91
2023-05-05T20:40:58.846Z,98983.69
2023-05-05T20:43:25.694Z,98980.16
2023-05-05T20:45:52.650Z,98979.88
2023-05-05T20:48:19.612Z,98985.81
2023-05-05T20:50:46.380Z,98980.28
2023-05-05T20:53:16.380Z,98980.91
2023-05-05T20:55:43.213Z,98984.63
2023-05-05T20:58:09.989Z,98993.34
2023-05-05T21:00:36.911Z,98994.75
2023-05-05T21:03:04.619Z,99002.84
2023-05-05T21:05:31.951Z,99015.66
2023-05-05T21:08:00.825Z,99023.16
2023-05-05T21:10:29.161Z,99011.63
2023-05-05T21:12:56.594Z,99015.63
2023-05-05T21:15:23.602Z,99000.09
2023-05-05T21:17:50.394Z,99008.34
2023-05-05T21:20:18.886Z,99008.50
2023-05-05T21:22:46.173Z,99018.88
2023-05-05T21:25:20.512Z,99017.25
2023-05-05T21:27:48.444Z,99021.91
2023-05-05T21:30:15.904Z,99025.19
2023-05-05T21:32:43.324Z,99023.22
2023-05-05T21:35:10.477Z,99027.31
2023-05-05T21:37:38.301Z,99032.06
2023-05-05T21:40:06.637Z,99028.47
2023-05-05T21:42:33.362Z,99034.56
2023-05-05T21:45:00.159Z,99028.16
2023-05-05T21:47:27.533Z,99027.50
2023-05-05T21:49:54.877Z,99033.78
2023-05-05T21:52:21.604Z,99029.16
2023-05-05T21:54:48.468Z,99021.22
2023-05-05T21:57:15.193Z,99033.78
2023-05-05T21:59:42.025Z,99034.25
2023-05-05T22:02:08.869Z,99043.66
2023-05-05T22:04:35.564Z,99039.69
2023-05-05T22:07:02.377Z,99049.63
2023-05-05T22:09:29.141Z,99039.56
2023-05-05T22:11:57.437Z,99044.03
2023-05-05T22:14:24.169Z,99036.44
2023-05-05T22:16:51.379Z,99035.44
2023-05-05T22:19:18.657Z,99032.13
2023-05-05T22:21:45.433Z,99028.00
2023-05-05T22:24:12.209Z,99023.53
2023-05-05T22:26:43.533Z,99017.59
2023-05-05T22:29:11.002Z,99009.31
2023-05-05T22:31:38.182Z,99012.84
2023-05-05T22:34:05.121Z,99010.66
2023-05-05T22:36:32.128Z,99011.31
2023-05-05T22:38:59.573Z,99002.38
2023-05-05T22:41:26.478Z,99010.66
2023-05-05T22:43:53.412Z,99003.22
2023-05-05T22:46:20.456Z,99001.22
2023-05-05T22:48:47.194Z,98997.44
2023-05-05T22:51:14.057Z,99006.06
2023-05-05T22:53:40.921Z,99006.06
2023-05-05T22:56:07.793Z,99016.97
2023-05-05T22:58:34.546Z,99018.44
2023-05-05T23:01:01.302Z,99018.13
2023-05-05T23:03:28.127Z,99020.78
2023-05-05T23:05:54.931Z,99018.47
2023-05-05T23:08:22.019Z,99027.19
2023-05-05T23:10:48.957Z,99019.63
2023-05-05T23:13:16.102Z,99011.34
2023-05-05T23:15:43.904Z,99014.16
2023-05-05T23:18:10.648Z,99017.63
2023-05-05T23:20:37.456Z,99004.41
2023-05-05T23:23:04.963Z,99012.03
2023-05-05T23:25:31.761Z,99011.38
2023-05-05T23:27:58.606Z,99007.06
2023-05-05T23:30:25.345Z,99004.59
2023-05-05T23:32:52.091Z,99001.75
2023-05-05T23:35:19.218Z,99003.59
2023-05-05T23:37:46.015Z,99010.66
2023-05-05T23:40:12.776Z,99001.72
2023-05-05T23:42:39.512Z,99005.38
2023-05-05T23:45:07.070Z,98990.81
2023-05-05T23:47:34.047Z,99006.66
2023-05-05T23:50:00.858Z,99007.63
2023-05-05T23:52:28.139Z,99001.69
2023-05-05T23:54:54.841Z,98994.06
2023-05-05T23:57:21.598Z,98999.84
2023-05-05T23:59:48.320Z,99000.72
